PWSweather.com
Personal Weather Stations
Station Observations

SkegnessGB

Lat: 53.147585, Lon: 0.345774

Elevation: 18

Station Type: Fine Offset WH3080

http://www.skegnessweather.info/

High Low Average
Temperature 46.2°F7.9°C 29.8°F-1.2°C 37.2°F2.9°C
Dew Point 36.7°F2.6°C 27.3°F-2.6°C 32.2°F0.1°C
Winds 10.6 mph 17.1 kmh 1.4 mph 2.3 kmh 6.0 mph SSW9.7 kmh SSW
Wind Gusts 11.8 mph19.0 kmh 2.5 mph4.0 kmh 7.0 mph11.3 kmh
Humidity 92% 66% 83%
Pressure 30.22 in1023.4 mb 29.99 in1015.6 mb -
Precipitation 0.00 in0.0 mm - -
Hour Temp Dew Point Humidity Winds Wind Gusts Pressure Precip Precip Rate Daily Precip Total
12:00 AM 32.5°F0.3°C 29.4°F-1.4°C 88% 5.4 mph SW8.7 kmh SW 5.9 mph9.5 kmh 29.99 in1015.6 mb 0.00 in0.0 mm 0.00 in0.0 mm 0.00 in0.0 mm
12:10 AM 32.5°F0.3°C 29.4°F-1.4°C 88% 5.7 mph SSE9.2 kmh SSE 6.6 mph10.6 kmh 30.00 in1015.9 mb 0.00 in0.0 mm 0.00 in0.0 mm 0.00 in0.0 mm
12:20 AM 32.5°F0.3°C 29.4°F-1.4°C 88% 5.6 mph SW9.0 kmh SW 6.6 mph10.6 kmh 30.00 in1015.9 mb 0.00 in0.0 mm 0.00 in0.0 mm 0.00 in0.0 mm
12:30 AM 32.4°F0.2°C 29.5°F-1.4°C 89% 6.9 mph SW11.1 kmh SW 7.6 mph12.2 kmh 30.00 in1015.9 mb 0.00 in0.0 mm 0.00 in0.0 mm 0.00 in0.0 mm
12:40 AM 32.2°F0.1°C 29.3°F-1.5°C 89% 6.7 mph S10.8 kmh S 8.4 mph13.5 kmh 30.00 in1015.9 mb 0.00 in0.0 mm 0.00 in0.0 mm 0.00 in0.0 mm
12:50 AM 32.2°F0.1°C 29.3°F-1.5°C 89% 5.7 mph SW9.2 kmh SW 9.1 mph14.6 kmh 30.01 in1016.3 mb 0.00 in0.0 mm 0.00 in0.0 mm 0.00 in0.0 mm
01:00 AM 32.2°F0.1°C 29.6°F-1.3°C 90% 4.8 mph SW7.7 kmh SW 6.6 mph10.6 kmh 30.01 in1016.3 mb 0.00 in0.0 mm 0.00 in0.0 mm 0.00 in0.0 mm
01:10 AM 32.2°F0.1°C 29.6°F-1.3°C 90% 5.3 mph S8.5 kmh S 5.9 mph9.5 kmh 30.02 in1016.6 mb 0.00 in0.0 mm 0.00 in0.0 mm 0.00 in0.0 mm
01:20 AM 32.2°F0.1°C 29.6°F-1.3°C 90% 4.6 mph SSW7.4 kmh SSW 6.6 mph10.6 kmh 30.02 in1016.6 mb 0.00 in0.0 mm 0.00 in0.0 mm 0.00 in0.0 mm
01:30 AM 32.0°F0.0°C 29.4°F-1.4°C 90% 5.2 mph SW8.4 kmh SW 5.9 mph9.5 kmh 30.02 in1016.6 mb 0.00 in0.0 mm 0.00 in0.0 mm 0.00 in0.0 mm
01:40 AM 31.8°F-0.1°C 29.2°F-1.6°C 90% 5.1 mph SW8.2 kmh SW 5.9 mph9.5 kmh 30.03 in1016.9 mb 0.00 in0.0 mm 0.00 in0.0 mm 0.00 in0.0 mm
01:50 AM 31.6°F-0.2°C 29.0°F-1.7°C 90% 4.3 mph SSW6.9 kmh SSW 4.2 mph6.8 kmh 30.03 in1016.9 mb 0.00 in0.0 mm 0.00 in0.0 mm 0.00 in0.0 mm
02:00 AM 31.5°F-0.3°C 28.9°F-1.7°C 90% 3.6 mph S5.8 kmh S 4.2 mph6.8 kmh 30.04 in1017.3 mb 0.00 in0.0 mm 0.00 in0.0 mm 0.00 in0.0 mm
02:10 AM 31.3°F-0.4°C 28.7°F-1.8°C 90% 3.9 mph S6.3 kmh S 4.9 mph7.9 kmh 30.04 in1017.3 mb 0.00 in0.0 mm 0.00 in0.0 mm 0.00 in0.0 mm
02:20 AM 31.3°F-0.4°C 29.0°F-1.7°C 91% 3.8 mph SW6.1 kmh SW 4.2 mph6.8 kmh 30.04 in1017.3 mb 0.00 in0.0 mm 0.00 in0.0 mm 0.00 in0.0 mm
02:30 AM 31.3°F-0.4°C 29.0°F-1.7°C 91% 3.9 mph SSW6.3 kmh SSW 4.9 mph7.9 kmh 30.05 in1017.6 mb 0.00 in0.0 mm 0.00 in0.0 mm 0.00 in0.0 mm
02:40 AM 31.3°F-0.4°C 29.0°F-1.7°C 91% 4.1 mph W6.6 kmh W 4.9 mph7.9 kmh 30.05 in1017.6 mb 0.00 in0.0 mm 0.00 in0.0 mm 0.00 in0.0 mm
02:50 AM 31.1°F-0.5°C 28.5°F-1.9°C 90% 4.6 mph SSW7.4 kmh SSW 4.9 mph7.9 kmh 30.05 in1017.6 mb 0.00 in0.0 mm 0.00 in0.0 mm 0.00 in0.0 mm
03:00 AM 31.1°F-0.5°C 28.5°F-1.9°C 90% 6.8 mph SW10.9 kmh SW 7.6 mph12.2 kmh 30.05 in1017.6 mb 0.00 in0.0 mm 0.00 in0.0 mm 0.00 in0.0 mm
03:10 AM 31.1°F-0.5°C 28.8°F-1.8°C 91% 7.6 mph ESE12.2 kmh ESE 6.6 mph10.6 kmh 30.05 in1017.6 mb 0.00 in0.0 mm 0.00 in0.0 mm 0.00 in0.0 mm
03:20 AM 31.3°F-0.4°C 29.0°F-1.7°C 91% 7.4 mph SW11.9 kmh SW 7.6 mph12.2 kmh 30.05 in1017.6 mb 0.00 in0.0 mm 0.00 in0.0 mm 0.00 in0.0 mm
03:30 AM 31.5°F-0.3°C 29.4°F-1.4°C 92% 5.2 mph SSW8.4 kmh SSW 7.6 mph12.2 kmh 30.06 in1017.9 mb 0.00 in0.0 mm 0.00 in0.0 mm 0.00 in0.0 mm
03:40 AM 31.5°F-0.3°C 29.1°F-1.6°C 91% 4.3 mph WSW6.9 kmh WSW 5.9 mph9.5 kmh 30.07 in1018.3 mb 0.00 in0.0 mm 0.00 in0.0 mm 0.00 in0.0 mm
03:50 AM 31.5°F-0.3°C 29.1°F-1.6°C 91% 3.7 mph SSW6.0 kmh SSW 4.9 mph7.9 kmh 30.07 in1018.3 mb 0.00 in0.0 mm 0.00 in0.0 mm 0.00 in0.0 mm
04:00 AM 31.3°F-0.4°C 29.0°F-1.7°C 91% 3.3 mph SW5.3 kmh SW 4.9 mph7.9 kmh 30.07 in1018.3 mb 0.00 in0.0 mm 0.00 in0.0 mm 0.00 in0.0 mm
04:10 AM 31.3°F-0.4°C 29.0°F-1.7°C 91% 3.5 mph WSW5.6 kmh WSW 5.9 mph9.5 kmh 30.07 in1018.3 mb 0.00 in0.0 mm 0.00 in0.0 mm 0.00 in0.0 mm
04:20 AM 31.3°F-0.4°C 29.0°F-1.7°C 91% 2.8 mph SW4.5 kmh SW 8.4 mph13.5 kmh 30.07 in1018.3 mb 0.00 in0.0 mm 0.00 in0.0 mm 0.00 in0.0 mm
04:30 AM 31.3°F-0.4°C 29.0°F-1.7°C 91% 5.4 mph NW8.7 kmh NW 5.9 mph9.5 kmh 30.07 in1018.3 mb 0.00 in0.0 mm 0.00 in0.0 mm 0.00 in0.0 mm
04:40 AM 32.2°F0.1°C 29.6°F-1.3°C 90% 8.3 mph SE13.4 kmh SE 9.1 mph14.6 kmh 30.08 in1018.6 mb 0.00 in0.0 mm 0.00 in0.0 mm 0.00 in0.0 mm
04:50 AM 32.2°F0.1°C 29.0°F-1.7°C 88% 6.9 mph S11.1 kmh S 7.6 mph12.2 kmh 30.08 in1018.6 mb 0.00 in0.0 mm 0.00 in0.0 mm 0.00 in0.0 mm
05:00 AM 32.0°F0.0°C 28.6°F-1.9°C 87% 5.5 mph S8.9 kmh S 7.6 mph12.2 kmh 30.09 in1019.0 mb 0.00 in0.0 mm 0.00 in0.0 mm 0.00 in0.0 mm
05:10 AM 31.6°F-0.2°C 28.2°F-2.1°C 87% 6.0 mph SW9.7 kmh SW 7.6 mph12.2 kmh 30.09 in1019.0 mb 0.00 in0.0 mm 0.00 in0.0 mm 0.00 in0.0 mm
05:20 AM 31.6°F-0.2°C 28.5°F-1.9°C 88% 5.4 mph SW8.7 kmh SW 6.6 mph10.6 kmh 30.08 in1018.6 mb 0.00 in0.0 mm 0.00 in0.0 mm 0.00 in0.0 mm
05:30 AM 31.3°F-0.4°C 28.1°F-2.2°C 88% 5.8 mph WSW9.3 kmh WSW 6.6 mph10.6 kmh 30.09 in1019.0 mb 0.00 in0.0 mm 0.00 in0.0 mm 0.00 in0.0 mm
05:40 AM 31.3°F-0.4°C 28.4°F-2.0°C 89% 5.4 mph WSW8.7 kmh WSW 8.4 mph13.5 kmh 30.09 in1019.0 mb 0.00 in0.0 mm 0.00 in0.0 mm 0.00 in0.0 mm
05:50 AM 31.3°F-0.4°C 28.4°F-2.0°C 89% 5.4 mph SW8.7 kmh SW 7.6 mph12.2 kmh 30.10 in1019.3 mb 0.00 in0.0 mm 0.00 in0.0 mm 0.00 in0.0 mm
06:00 AM 31.1°F-0.5°C 28.2°F-2.1°C 89% 5.0 mph WSW8.0 kmh WSW 8.4 mph13.5 kmh 30.10 in1019.3 mb 0.00 in0.0 mm 0.00 in0.0 mm 0.00 in0.0 mm
06:10 AM 30.9°F-0.6°C 28.1°F-2.2°C 89% 4.3 mph SW6.9 kmh SW 5.9 mph9.5 kmh 30.11 in1019.6 mb 0.00 in0.0 mm 0.00 in0.0 mm 0.00 in0.0 mm
06:20 AM 30.9°F-0.6°C 28.1°F-2.2°C 89% 4.8 mph SSE7.7 kmh SSE 5.9 mph9.5 kmh 30.11 in1019.6 mb 0.00 in0.0 mm 0.00 in0.0 mm 0.00 in0.0 mm
06:30 AM 30.7°F-0.7°C 28.2°F-2.1°C 90% 5.0 mph SW8.0 kmh SW 5.9 mph9.5 kmh 30.10 in1019.3 mb 0.00 in0.0 mm 0.00 in0.0 mm 0.00 in0.0 mm
06:40 AM 30.6°F-0.8°C 28.0°F-2.2°C 90% 4.3 mph WSW6.9 kmh WSW 4.2 mph6.8 kmh 30.11 in1019.6 mb 0.00 in0.0 mm 0.00 in0.0 mm 0.00 in0.0 mm
06:50 AM 30.4°F-0.9°C 27.8°F-2.3°C 90% 3.5 mph SW5.6 kmh SW 4.2 mph6.8 kmh 30.11 in1019.6 mb 0.00 in0.0 mm 0.00 in0.0 mm 0.00 in0.0 mm
07:00 AM 30.2°F-1.0°C 27.6°F-2.4°C 90% 2.7 mph SW4.3 kmh SW 3.4 mph5.5 kmh 30.11 in1019.6 mb 0.00 in0.0 mm 0.00 in0.0 mm 0.00 in0.0 mm
07:10 AM 29.8°F-1.2°C 27.3°F-2.6°C 90% 2.1 mph N3.4 kmh N 2.5 mph4.0 kmh 30.12 in1020.0 mb 0.00 in0.0 mm 0.00 in0.0 mm 0.00 in0.0 mm
07:20 AM 29.8°F-1.2°C 27.5°F-2.5°C 91% 1.4 mph N2.3 kmh N 3.4 mph5.5 kmh 30.12 in1020.0 mb 0.00 in0.0 mm 0.00 in0.0 mm 0.00 in0.0 mm
07:30 AM 30.0°F-1.1°C 27.7°F-2.4°C 91% 2.2 mph SW3.5 kmh SW 3.4 mph5.5 kmh 30.13 in1020.3 mb 0.00 in0.0 mm 0.00 in0.0 mm 0.00 in0.0 mm
07:40 AM 30.2°F-1.0°C 28.2°F-2.1°C 92% 4.1 mph WSW6.6 kmh WSW 5.9 mph9.5 kmh 30.13 in1020.3 mb 0.00 in0.0 mm 0.00 in0.0 mm 0.00 in0.0 mm
07:50 AM 30.4°F-0.9°C 28.3°F-2.1°C 92% 2.8 mph SW4.5 kmh SW 4.2 mph6.8 kmh 30.14 in1020.7 mb 0.00 in0.0 mm 0.00 in0.0 mm 0.00 in0.0 mm
08:00 AM 30.7°F-0.7°C 28.7°F-1.8°C 92% 5.0 mph SW8.0 kmh SW 11.8 mph19.0 kmh 30.14 in1020.7 mb 0.00 in0.0 mm 0.00 in0.0 mm 0.00 in0.0 mm
08:10 AM 31.1°F-0.5°C 29.0°F-1.7°C 92% 6.1 mph SW9.8 kmh SW 7.6 mph12.2 kmh 30.15 in1021.0 mb 0.00 in0.0 mm 0.00 in0.0 mm 0.00 in0.0 mm
08:20 AM 31.3°F-0.4°C 29.2°F-1.6°C 92% 4.3 mph SW6.9 kmh SW 4.9 mph7.9 kmh 30.16 in1021.3 mb 0.00 in0.0 mm 0.00 in0.0 mm 0.00 in0.0 mm
08:30 AM 31.5°F-0.3°C 29.4°F-1.4°C 92% 3.5 mph WSW5.6 kmh WSW 4.9 mph7.9 kmh 30.16 in1021.3 mb 0.00 in0.0 mm 0.00 in0.0 mm 0.00 in0.0 mm
08:40 AM 31.8°F-0.1°C 29.8°F-1.2°C 92% 4.3 mph SSW6.9 kmh SSW 4.9 mph7.9 kmh 30.16 in1021.3 mb 0.00 in0.0 mm 0.00 in0.0 mm 0.00 in0.0 mm
08:50 AM 32.2°F0.1°C 30.1°F-1.1°C 92% 2.8 mph SW4.5 kmh SW 4.2 mph6.8 kmh 30.17 in1021.7 mb 0.00 in0.0 mm 0.00 in0.0 mm 0.00 in0.0 mm
09:00 AM 32.5°F0.3°C 30.5°F-0.8°C 92% 2.1 mph SW3.4 kmh SW 3.4 mph5.5 kmh 30.17 in1021.7 mb 0.00 in0.0 mm 0.00 in0.0 mm 0.00 in0.0 mm
09:10 AM 32.9°F0.5°C 30.6°F-0.8°C 91% 3.0 mph W4.8 kmh W 3.4 mph5.5 kmh 30.17 in1021.7 mb 0.00 in0.0 mm 0.00 in0.0 mm 0.00 in0.0 mm
09:20 AM 33.3°F0.7°C 30.9°F-0.6°C 91% 2.0 mph SW3.2 kmh SW 3.4 mph5.5 kmh 30.18 in1022.0 mb 0.00 in0.0 mm 0.00 in0.0 mm 0.00 in0.0 mm
09:30 AM 33.8°F1.0°C 31.5°F-0.3°C 91% 2.3 mph S3.7 kmh S 4.2 mph6.8 kmh 30.18 in1022.0 mb 0.00 in0.0 mm 0.00 in0.0 mm 0.00 in0.0 mm
09:40 AM 34.9°F1.6°C 32.5°F0.3°C 91% 3.9 mph SW6.3 kmh SW 4.9 mph7.9 kmh 30.19 in1022.4 mb 0.00 in0.0 mm 0.00 in0.0 mm 0.00 in0.0 mm
09:50 AM 36.7°F2.6°C 33.7°F0.9°C 89% 4.7 mph WSW7.6 kmh WSW 5.9 mph9.5 kmh 30.19 in1022.4 mb 0.00 in0.0 mm 0.00 in0.0 mm 0.00 in0.0 mm
10:00 AM 37.2°F2.9°C 33.1°F0.6°C 85% 5.6 mph SW9.0 kmh SW 8.4 mph13.5 kmh 30.19 in1022.4 mb 0.00 in0.0 mm 0.00 in0.0 mm 0.00 in0.0 mm
10:10 AM 39.2°F4.0°C 34.5°F1.4°C 83% 5.5 mph SW8.9 kmh SW 4.9 mph7.9 kmh 30.18 in1022.0 mb 0.00 in0.0 mm 0.00 in0.0 mm 0.00 in0.0 mm
10:20 AM 40.1°F4.5°C 34.1°F1.2°C 79% 5.5 mph SSW8.9 kmh SSW 7.6 mph12.2 kmh 30.19 in1022.4 mb 0.00 in0.0 mm 0.00 in0.0 mm 0.00 in0.0 mm
10:30 AM 41.0°F5.0°C 34.7°F1.5°C 78% 5.5 mph SSW8.9 kmh SSW 7.6 mph12.2 kmh 30.19 in1022.4 mb 0.00 in0.0 mm 0.00 in0.0 mm 0.00 in0.0 mm
10:40 AM 42.3°F5.7°C 35.6°F2.0°C 77% 4.8 mph SSW7.7 kmh SSW 6.6 mph10.6 kmh 30.19 in1022.4 mb 0.00 in0.0 mm 0.00 in0.0 mm 0.00 in0.0 mm
10:50 AM 42.6°F5.9°C 35.2°F1.8°C 75% 5.2 mph SW8.4 kmh SW 6.6 mph10.6 kmh 30.20 in1022.7 mb 0.00 in0.0 mm 0.00 in0.0 mm 0.00 in0.0 mm
11:00 AM 41.7°F5.4°C 34.4°F1.3°C 75% 7.0 mph SW11.3 kmh SW 9.1 mph14.6 kmh 30.20 in1022.7 mb 0.00 in0.0 mm 0.00 in0.0 mm 0.00 in0.0 mm
11:10 AM 42.6°F5.9°C 35.2°F1.8°C 75% 6.4 mph E10.3 kmh E 6.6 mph10.6 kmh 30.21 in1023.0 mb 0.00 in0.0 mm 0.00 in0.0 mm 0.00 in0.0 mm
11:20 AM 42.8°F6.0°C 34.4°F1.3°C 72% 5.7 mph SW9.2 kmh SW 5.9 mph9.5 kmh 30.21 in1023.0 mb 0.00 in0.0 mm 0.00 in0.0 mm 0.00 in0.0 mm
11:30 AM 43.0°F6.1°C 34.6°F1.4°C 72% 5.9 mph SW9.5 kmh SW 7.6 mph12.2 kmh 30.21 in1023.0 mb 0.00 in0.0 mm 0.00 in0.0 mm 0.00 in0.0 mm
11:40 AM 43.7°F6.5°C 35.3°F1.8°C 72% 5.0 mph SW8.0 kmh SW 5.9 mph9.5 kmh 30.21 in1023.0 mb 0.00 in0.0 mm 0.00 in0.0 mm 0.00 in0.0 mm
11:50 AM 44.2°F6.8°C 35.8°F2.1°C 72% 6.0 mph WSW9.7 kmh WSW 7.6 mph12.2 kmh 30.21 in1023.0 mb 0.00 in0.0 mm 0.00 in0.0 mm 0.00 in0.0 mm
12:00 PM 44.2°F6.8°C 35.4°F1.9°C 71% 7.9 mph SW12.7 kmh SW 8.4 mph13.5 kmh 30.22 in1023.4 mb 0.00 in0.0 mm 0.00 in0.0 mm 0.00 in0.0 mm
12:10 PM 44.2°F6.8°C 35.4°F1.9°C 71% 7.8 mph SW12.6 kmh SW 7.6 mph12.2 kmh 30.21 in1023.0 mb 0.00 in0.0 mm 0.00 in0.0 mm 0.00 in0.0 mm
12:20 PM 44.6°F7.0°C 35.8°F2.1°C 71% 7.6 mph SW12.2 kmh SW 8.4 mph13.5 kmh 30.22 in1023.4 mb 0.00 in0.0 mm 0.00 in0.0 mm 0.00 in0.0 mm
12:30 PM 44.8°F7.1°C 35.6°F2.0°C 70% 8.1 mph W13.0 kmh W 8.4 mph13.5 kmh 30.21 in1023.0 mb 0.00 in0.0 mm 0.00 in0.0 mm 0.00 in0.0 mm
12:40 PM 45.0°F7.2°C 35.4°F1.9°C 69% 7.5 mph WNW12.1 kmh WNW 9.1 mph14.6 kmh 30.20 in1022.7 mb 0.00 in0.0 mm 0.00 in0.0 mm 0.00 in0.0 mm
12:50 PM 45.7°F7.6°C 36.1°F2.3°C 69% 6.6 mph SW10.6 kmh SW 10.1 mph16.3 kmh 30.20 in1022.7 mb 0.00 in0.0 mm 0.00 in0.0 mm 0.00 in0.0 mm
01:00 PM 45.7°F7.6°C 35.7°F2.1°C 68% 8.0 mph SW12.9 kmh SW 8.4 mph13.5 kmh 30.20 in1022.7 mb 0.00 in0.0 mm 0.00 in0.0 mm 0.00 in0.0 mm
01:10 PM 45.9°F7.7°C 35.9°F2.2°C 68% 6.7 mph SW10.8 kmh SW 7.6 mph12.2 kmh 30.20 in1022.7 mb 0.00 in0.0 mm 0.00 in0.0 mm 0.00 in0.0 mm
01:20 PM 45.9°F7.7°C 35.9°F2.2°C 68% 6.0 mph SSW9.7 kmh SSW 7.6 mph12.2 kmh 30.20 in1022.7 mb 0.00 in0.0 mm 0.00 in0.0 mm 0.00 in0.0 mm
01:30 PM 46.0°F7.8°C 35.7°F2.1°C 67% 5.8 mph WSW9.3 kmh WSW 7.6 mph12.2 kmh 30.20 in1022.7 mb 0.00 in0.0 mm 0.00 in0.0 mm 0.00 in0.0 mm
01:40 PM 46.2°F7.9°C 35.9°F2.2°C 67% 6.6 mph WSW10.6 kmh WSW 7.6 mph12.2 kmh 30.20 in1022.7 mb 0.00 in0.0 mm 0.00 in0.0 mm 0.00 in0.0 mm
01:50 PM 46.0°F7.8°C 35.7°F2.1°C 67% 7.8 mph SW12.6 kmh SW 8.4 mph13.5 kmh 30.19 in1022.4 mb 0.00 in0.0 mm 0.00 in0.0 mm 0.00 in0.0 mm
02:00 PM 46.0°F7.8°C 35.7°F2.1°C 67% 6.6 mph SSW10.6 kmh SSW 10.8 mph17.4 kmh 30.19 in1022.4 mb 0.00 in0.0 mm 0.00 in0.0 mm 0.00 in0.0 mm
02:10 PM 45.7°F7.6°C 35.3°F1.8°C 67% 5.2 mph SW8.4 kmh SW 5.9 mph9.5 kmh 30.20 in1022.7 mb 0.00 in0.0 mm 0.00 in0.0 mm 0.00 in0.0 mm
02:20 PM 45.5°F7.5°C 35.2°F1.8°C 67% 7.2 mph SSW11.6 kmh SSW 9.1 mph14.6 kmh 30.19 in1022.4 mb 0.00 in0.0 mm 0.00 in0.0 mm 0.00 in0.0 mm
02:30 PM 45.5°F7.5°C 35.5°F1.9°C 68% 6.1 mph SSW9.8 kmh SSW 6.6 mph10.6 kmh 30.19 in1022.4 mb 0.00 in0.0 mm 0.00 in0.0 mm 0.00 in0.0 mm
02:40 PM 45.3°F7.4°C 35.0°F1.7°C 67% 6.3 mph SW10.1 kmh SW 6.6 mph10.6 kmh 30.19 in1022.4 mb 0.00 in0.0 mm 0.00 in0.0 mm 0.00 in0.0 mm
02:50 PM 45.3°F7.4°C 34.6°F1.4°C 66% 6.3 mph SSW10.1 kmh SSW 9.1 mph14.6 kmh 30.20 in1022.7 mb 0.00 in0.0 mm 0.00 in0.0 mm 0.00 in0.0 mm
03:00 PM 45.1°F7.3°C 34.8°F1.6°C 67% 6.3 mph SW10.1 kmh SW 8.4 mph13.5 kmh 30.19 in1022.4 mb 0.00 in0.0 mm 0.00 in0.0 mm 0.00 in0.0 mm
03:10 PM 45.0°F7.2°C 35.0°F1.7°C 68% 6.4 mph SSE10.3 kmh SSE 6.6 mph10.6 kmh 30.19 in1022.4 mb 0.00 in0.0 mm 0.00 in0.0 mm 0.00 in0.0 mm
03:20 PM 44.6°F7.0°C 35.4°F1.9°C 70% 5.7 mph S9.2 kmh S 7.6 mph12.2 kmh 30.19 in1022.4 mb 0.00 in0.0 mm 0.00 in0.0 mm 0.00 in0.0 mm
03:30 PM 44.4°F6.9°C 36.0°F2.2°C 72% 5.0 mph SW8.0 kmh SW 7.6 mph12.2 kmh 30.18 in1022.0 mb 0.00 in0.0 mm 0.00 in0.0 mm 0.00 in0.0 mm
03:40 PM 44.2°F6.8°C 35.8°F2.1°C 72% 5.6 mph SW9.0 kmh SW 6.6 mph10.6 kmh 30.19 in1022.4 mb 0.00 in0.0 mm 0.00 in0.0 mm 0.00 in0.0 mm
03:50 PM 43.9°F6.6°C 35.8°F2.1°C 73% 5.0 mph SW8.0 kmh SW 5.9 mph9.5 kmh 30.19 in1022.4 mb 0.00 in0.0 mm 0.00 in0.0 mm 0.00 in0.0 mm
04:00 PM 43.7°F6.5°C 35.3°F1.8°C 72% 3.8 mph W6.1 kmh W 5.9 mph9.5 kmh 30.20 in1022.7 mb 0.00 in0.0 mm 0.00 in0.0 mm 0.00 in0.0 mm
04:10 PM 43.3°F6.3°C 35.3°F1.8°C 73% 5.2 mph S8.4 kmh S 5.9 mph9.5 kmh 30.19 in1022.4 mb 0.00 in0.0 mm 0.00 in0.0 mm 0.00 in0.0 mm
04:20 PM 43.0°F6.1°C 34.9°F1.6°C 73% 4.0 mph S6.4 kmh S 4.9 mph7.9 kmh 30.20 in1022.7 mb 0.00 in0.0 mm 0.00 in0.0 mm 0.00 in0.0 mm
04:30 PM 42.6°F5.9°C 36.2°F2.3°C 78% 3.9 mph SSE6.3 kmh SSE 4.9 mph7.9 kmh 30.19 in1022.4 mb 0.00 in0.0 mm 0.00 in0.0 mm 0.00 in0.0 mm
04:40 PM 42.1°F5.6°C 36.7°F2.6°C 81% 4.8 mph S7.7 kmh S 4.9 mph7.9 kmh 30.20 in1022.7 mb 0.00 in0.0 mm 0.00 in0.0 mm 0.00 in0.0 mm
04:50 PM 41.5°F5.3°C 36.5°F2.5°C 82% 5.3 mph S8.5 kmh S 5.9 mph9.5 kmh 30.19 in1022.4 mb 0.00 in0.0 mm 0.00 in0.0 mm 0.00 in0.0 mm
05:00 PM 41.0°F5.0°C 35.9°F2.2°C 82% 5.5 mph S8.9 kmh S 6.6 mph10.6 kmh 30.20 in1022.7 mb 0.00 in0.0 mm 0.00 in0.0 mm 0.00 in0.0 mm
05:10 PM 40.5°F4.7°C 35.7°F2.1°C 83% 6.1 mph SE9.8 kmh SE 4.9 mph7.9 kmh 30.20 in1022.7 mb 0.00 in0.0 mm 0.00 in0.0 mm 0.00 in0.0 mm
05:20 PM 40.1°F4.5°C 35.4°F1.9°C 83% 4.7 mph SSE7.6 kmh SSE 4.9 mph7.9 kmh 30.20 in1022.7 mb 0.00 in0.0 mm 0.00 in0.0 mm 0.00 in0.0 mm
05:30 PM 39.9°F4.4°C 35.2°F1.8°C 83% 3.5 mph SSW5.6 kmh SSW 4.9 mph7.9 kmh 30.20 in1022.7 mb 0.00 in0.0 mm 0.00 in0.0 mm 0.00 in0.0 mm
05:40 PM 39.6°F4.2°C 34.8°F1.6°C 83% 4.7 mph S7.6 kmh S 4.9 mph7.9 kmh 30.20 in1022.7 mb 0.00 in0.0 mm 0.00 in0.0 mm 0.00 in0.0 mm
05:50 PM 39.6°F4.2°C 34.8°F1.6°C 83% 3.9 mph S6.3 kmh S 4.2 mph6.8 kmh 30.20 in1022.7 mb 0.00 in0.0 mm 0.00 in0.0 mm 0.00 in0.0 mm
06:00 PM 39.2°F4.0°C 34.5°F1.4°C 83% 2.8 mph S4.5 kmh S 3.4 mph5.5 kmh 30.20 in1022.7 mb 0.00 in0.0 mm 0.00 in0.0 mm 0.00 in0.0 mm
06:10 PM 39.2°F4.0°C 34.5°F1.4°C 83% 2.8 mph S4.5 kmh S 3.4 mph5.5 kmh 30.20 in1022.7 mb 0.00 in0.0 mm 0.00 in0.0 mm 0.00 in0.0 mm
06:20 PM 39.2°F4.0°C 34.5°F1.4°C 83% 3.7 mph SSE6.0 kmh SSE 4.9 mph7.9 kmh 30.20 in1022.7 mb 0.00 in0.0 mm 0.00 in0.0 mm 0.00 in0.0 mm
06:30 PM 39.2°F4.0°C 34.5°F1.4°C 83% 4.5 mph SSE7.2 kmh SSE 4.9 mph7.9 kmh 30.20 in1022.7 mb 0.00 in0.0 mm 0.00 in0.0 mm 0.00 in0.0 mm
06:40 PM 39.0°F3.9°C 34.3°F1.3°C 83% 6.3 mph S10.1 kmh S 6.6 mph10.6 kmh 30.20 in1022.7 mb 0.00 in0.0 mm 0.00 in0.0 mm 0.00 in0.0 mm
06:50 PM 39.0°F3.9°C 34.3°F1.3°C 83% 5.9 mph S9.5 kmh S 6.6 mph10.6 kmh 30.20 in1022.7 mb 0.00 in0.0 mm 0.00 in0.0 mm 0.00 in0.0 mm
07:00 PM 39.0°F3.9°C 34.3°F1.3°C 83% 5.5 mph SSE8.9 kmh SSE 5.9 mph9.5 kmh 30.19 in1022.4 mb 0.00 in0.0 mm 0.00 in0.0 mm 0.00 in0.0 mm
07:10 PM 39.0°F3.9°C 34.6°F1.4°C 84% 5.0 mph S8.0 kmh S 6.6 mph10.6 kmh 30.19 in1022.4 mb 0.00 in0.0 mm 0.00 in0.0 mm 0.00 in0.0 mm
07:20 PM 39.2°F4.0°C 34.8°F1.6°C 84% 6.7 mph S10.8 kmh S 8.4 mph13.5 kmh 30.19 in1022.4 mb 0.00 in0.0 mm 0.00 in0.0 mm 0.00 in0.0 mm
07:30 PM 39.2°F4.0°C 34.8°F1.6°C 84% 7.9 mph SE12.7 kmh SE 8.4 mph13.5 kmh 30.19 in1022.4 mb 0.00 in0.0 mm 0.00 in0.0 mm 0.00 in0.0 mm
07:40 PM 39.2°F4.0°C 34.8°F1.6°C 84% 8.6 mph S13.8 kmh S 11.8 mph19.0 kmh 30.18 in1022.0 mb 0.00 in0.0 mm 0.00 in0.0 mm 0.00 in0.0 mm
07:50 PM 39.2°F4.0°C 34.5°F1.4°C 83% 9.2 mph SSE14.8 kmh SSE 11.8 mph19.0 kmh 30.19 in1022.4 mb 0.00 in0.0 mm 0.00 in0.0 mm 0.00 in0.0 mm
08:00 PM 39.2°F4.0°C 34.2°F1.2°C 82% 8.6 mph S13.8 kmh S 9.1 mph14.6 kmh 30.19 in1022.4 mb 0.00 in0.0 mm 0.00 in0.0 mm 0.00 in0.0 mm
08:10 PM 39.0°F3.9°C 34.3°F1.3°C 83% 10.6 mph S17.1 kmh S 10.1 mph16.3 kmh 30.18 in1022.0 mb 0.00 in0.0 mm 0.00 in0.0 mm 0.00 in0.0 mm
08:20 PM 38.8°F3.8°C 34.1°F1.2°C 83% 9.9 mph SSE15.9 kmh SSE 10.8 mph17.4 kmh 30.18 in1022.0 mb 0.00 in0.0 mm 0.00 in0.0 mm 0.00 in0.0 mm
08:30 PM 38.7°F3.7°C 33.6°F0.9°C 82% 9.6 mph SSE15.4 kmh SSE 11.8 mph19.0 kmh 30.18 in1022.0 mb 0.00 in0.0 mm 0.00 in0.0 mm 0.00 in0.0 mm
08:40 PM 38.7°F3.7°C 33.6°F0.9°C 82% 9.0 mph S14.5 kmh S 10.1 mph16.3 kmh 30.19 in1022.4 mb 0.00 in0.0 mm 0.00 in0.0 mm 0.00 in0.0 mm
08:50 PM 38.7°F3.7°C 33.6°F0.9°C 82% 8.5 mph S13.7 kmh S 9.1 mph14.6 kmh 30.18 in1022.0 mb 0.00 in0.0 mm 0.00 in0.0 mm 0.00 in0.0 mm
09:00 PM 38.3°F3.5°C 33.3°F0.7°C 82% 8.0 mph SSE12.9 kmh SSE 8.4 mph13.5 kmh 30.18 in1022.0 mb 0.00 in0.0 mm 0.00 in0.0 mm 0.00 in0.0 mm
09:10 PM 38.1°F3.4°C 33.1°F0.6°C 82% 6.0 mph SSW9.7 kmh SSW 6.6 mph10.6 kmh 30.18 in1022.0 mb 0.00 in0.0 mm 0.00 in0.0 mm 0.00 in0.0 mm
09:20 PM 37.9°F3.3°C 33.2°F0.7°C 83% 8.1 mph S13.0 kmh S 9.1 mph14.6 kmh 30.18 in1022.0 mb 0.00 in0.0 mm 0.00 in0.0 mm 0.00 in0.0 mm
09:30 PM 38.1°F3.4°C 33.4°F0.8°C 83% 8.5 mph SSE13.7 kmh SSE 11.8 mph19.0 kmh 30.17 in1021.7 mb 0.00 in0.0 mm 0.00 in0.0 mm 0.00 in0.0 mm
09:40 PM 37.9°F3.3°C 32.9°F0.5°C 82% 9.8 mph S15.8 kmh S 10.1 mph16.3 kmh 30.17 in1021.7 mb 0.00 in0.0 mm 0.00 in0.0 mm 0.00 in0.0 mm
09:50 PM 37.6°F3.1°C 32.6°F0.3°C 82% 7.0 mph SSE11.3 kmh SSE 7.6 mph12.2 kmh 30.18 in1022.0 mb 0.00 in0.0 mm 0.00 in0.0 mm 0.00 in0.0 mm
10:00 PM 37.4°F3.0°C 32.4°F0.2°C 82% 7.5 mph S12.1 kmh S 8.4 mph13.5 kmh 30.18 in1022.0 mb 0.00 in0.0 mm 0.00 in0.0 mm 0.00 in0.0 mm
10:10 PM 37.2°F2.9°C 32.2°F0.1°C 82% 8.8 mph SSE14.2 kmh SSE 9.1 mph14.6 kmh 30.17 in1021.7 mb 0.00 in0.0 mm 0.00 in0.0 mm 0.00 in0.0 mm
10:20 PM 37.2°F2.9°C 32.2°F0.1°C 82% 8.2 mph S13.2 kmh S 8.4 mph13.5 kmh 30.17 in1021.7 mb 0.00 in0.0 mm 0.00 in0.0 mm 0.00 in0.0 mm
10:30 PM 37.0°F2.8°C 32.1°F0.1°C 82% 7.7 mph SSE12.4 kmh SSE 8.4 mph13.5 kmh 30.17 in1021.7 mb 0.00 in0.0 mm 0.00 in0.0 mm 0.00 in0.0 mm
10:40 PM 36.9°F2.7°C 31.9°F-0.1°C 82% 9.1 mph S14.6 kmh S 10.1 mph16.3 kmh 30.17 in1021.7 mb 0.00 in0.0 mm 0.00 in0.0 mm 0.00 in0.0 mm
10:50 PM 36.7°F2.6°C 32.0°F0.0°C 83% 7.0 mph S11.3 kmh S 8.4 mph13.5 kmh 30.17 in1021.7 mb 0.00 in0.0 mm 0.00 in0.0 mm 0.00 in0.0 mm
11:00 PM 36.5°F2.5°C 31.8°F-0.1°C 83% 7.8 mph SSE12.6 kmh SSE 7.6 mph12.2 kmh 30.17 in1021.7 mb 0.00 in0.0 mm 0.00 in0.0 mm 0.00 in0.0 mm
11:10 PM 36.5°F2.5°C 31.8°F-0.1°C 83% 8.2 mph SE13.2 kmh SE 9.1 mph14.6 kmh 30.18 in1022.0 mb 0.00 in0.0 mm 0.00 in0.0 mm 0.00 in0.0 mm
11:20 PM 36.3°F2.4°C 31.7°F-0.2°C 83% 8.6 mph S13.8 kmh S 8.4 mph13.5 kmh 30.18 in1022.0 mb 0.00 in0.0 mm 0.00 in0.0 mm 0.00 in0.0 mm
11:30 PM 36.3°F2.4°C 31.7°F-0.2°C 83% 7.3 mph S11.7 kmh S 10.1 mph16.3 kmh 30.17 in1021.7 mb 0.00 in0.0 mm 0.00 in0.0 mm 0.00 in0.0 mm
11:40 PM 36.1°F2.3°C 31.5°F-0.3°C 83% 7.3 mph S11.7 kmh S 8.4 mph13.5 kmh 30.18 in1022.0 mb 0.00 in0.0 mm 0.00 in0.0 mm 0.00 in0.0 mm
11:50 PM 36.0°F2.2°C 31.6°F-0.2°C 84% 7.6 mph S12.2 kmh S 7.6 mph12.2 kmh 30.17 in1021.7 mb 0.00 in0.0 mm 0.00 in0.0 mm 0.00 in0.0 mm